createdAt,value
2018-01-19T00:00:53.345Z,985.62
2018-01-19T00:02:03.397Z,985.47
2018-01-19T00:03:13.446Z,985.59
2018-01-19T00:04:23.236Z,985.69
2018-01-19T00:05:33.301Z,985.65
2018-01-19T00:06:43.359Z,985.64
2018-01-19T00:07:53.412Z,985.72
2018-01-19T00:09:03.195Z,985.6
2018-01-19T00:10:13.267Z,985.59
2018-01-19T00:11:23.331Z,985.59
2018-01-19T00:12:33.117Z,985.61
2018-01-19T00:13:43.162Z,985.59
2018-01-19T00:14:52.948Z,985.63
2018-01-19T00:16:03.022Z,985.77
2018-01-19T00:17:13.157Z,985.78
2018-01-19T00:18:24.256Z,985.84
2018-01-19T00:19:34.044Z,985.89
2018-01-19T00:20:43.828Z,985.89
2018-01-19T00:21:53.897Z,985.86
2018-01-19T00:23:03.940Z,985.86
2018-01-19T00:24:14.299Z,985.82
2018-01-19T00:25:24.387Z,985.75
2018-01-19T00:26:34.434Z,985.73
2018-01-19T00:27:44.499Z,985.79
2018-01-19T00:28:54.538Z,985.8
2018-01-19T00:30:04.740Z,985.8
2018-01-19T00:31:14.791Z,985.77
2018-01-19T00:32:24.368Z,985.73
2018-01-19T00:33:34.407Z,985.73
2018-01-19T00:34:44.445Z,985.7
2018-01-19T00:35:54.852Z,985.67
2018-01-19T00:37:04.752Z,985.67
2018-01-19T00:38:14.844Z,985.7
2018-01-19T00:39:24.887Z,985.74
2018-01-19T00:40:34.683Z,985.7
2018-01-19T00:41:44.712Z,985.64
2018-01-19T00:42:54.754Z,985.66
2018-01-19T00:44:04.819Z,985.56
2018-01-19T00:45:14.855Z,985.56
2018-01-19T00:46:24.377Z,985.59
2018-01-19T00:47:34.418Z,985.64
2018-01-19T00:48:44.224Z,985.7
2018-01-19T00:49:54.277Z,985.75
2018-01-19T00:51:04.334Z,985.75
2018-01-19T00:52:14.111Z,985.76
2018-01-19T00:53:23.920Z,985.78
2018-01-19T00:54:33.964Z,985.86
2018-01-19T00:55:44.010Z,985.89
2018-01-19T00:56:53.593Z,985.91
2018-01-19T00:58:03.647Z,985.89
2018-01-19T00:59:13.689Z,985.84
2018-01-19T01:00:23.742Z,985.88
2018-01-19T01:01:33.843Z,985.84
2018-01-19T01:02:43.628Z,985.83
2018-01-19T01:03:53.671Z,985.84
2018-01-19T01:05:03.739Z,985.92
2018-01-19T01:06:13.519Z,985.87
2018-01-19T01:07:23.090Z,985.81
2018-01-19T01:08:32.872Z,985.8
2018-01-19T01:09:42.921Z,985.79
2018-01-19T01:10:52.734Z,985.9
2018-01-19T01:12:02.565Z,986.02
2018-01-19T01:13:12.656Z,986.19
2018-01-19T01:14:22.718Z,986.32
2018-01-19T01:15:32.760Z,986.4
2018-01-19T01:16:42.832Z,986.51
2018-01-19T01:17:52.658Z,986.57
2018-01-19T01:19:02.206Z,986.56
2018-01-19T01:20:11.773Z,986.62
2018-01-19T01:21:21.830Z,986.66
2018-01-19T01:22:31.891Z,986.62
2018-01-19T01:23:41.953Z,986.49
2018-01-19T01:24:52.047Z,986.53
2018-01-19T01:26:02.088Z,986.48
2018-01-19T01:27:11.867Z,986.54
2018-01-19T01:28:21.925Z,986.39
2018-01-19T01:29:31.961Z,986.36
2018-01-19T01:30:42.041Z,986.34
2018-01-19T01:31:51.817Z,986.35
2018-01-19T01:33:01.342Z,986.35
2018-01-19T01:34:11.128Z,986.28
2018-01-19T01:35:20.910Z,986.27
2018-01-19T01:36:30.765Z,986.19
2018-01-19T01:37:40.799Z,986.22
2018-01-19T01:38:50.858Z,986.26
2018-01-19T01:40:00.909Z,986.28
2018-01-19T01:41:10.693Z,986.39
2018-01-19T01:42:20.225Z,986.49
2018-01-19T01:43:30.273Z,986.56
2018-01-19T01:44:40.313Z,986.49
2018-01-19T01:45:50.381Z,986.43
2018-01-19T01:47:00.163Z,986.35
2018-01-19T01:48:09.950Z,986.37
2018-01-19T01:49:19.999Z,986.29
2018-01-19T01:50:30.070Z,986.23
2018-01-19T01:51:40.042Z,986.27
2018-01-19T01:52:50.110Z,986.33
2018-01-19T01:53:59.942Z,986.51
2018-01-19T01:55:09.992Z,986.68
2018-01-19T01:56:20.045Z,986.77
2018-01-19T01:57:30.094Z,986.81
2018-01-19T01:58:40.131Z,986.81
2018-01-19T01:59:50.173Z,986.76
2018-01-19T02:00:59.946Z,986.64
2018-01-19T02:02:09.742Z,986.6
2018-01-19T02:03:20.797Z,986.51
2018-01-19T02:04:30.839Z,986.41
2018-01-19T02:05:40.932Z,986.48
2018-01-19T02:06:50.819Z,986.48
2018-01-19T02:08:00.610Z,986.37
2018-01-19T02:09:10.658Z,986.18
2018-01-19T02:10:20.691Z,986.26
2018-01-19T02:11:30.734Z,986.35
2018-01-19T02:12:40.775Z,986.38
2018-01-19T02:13:50.826Z,986.43
2018-01-19T02:15:00.871Z,986.56
2018-01-19T02:16:10.921Z,986.46
2018-01-19T02:17:21.366Z,986.29
2018-01-19T02:18:31.171Z,986.23
2018-01-19T02:19:41.208Z,986.35
2018-01-19T02:20:51.000Z,986.46
2018-01-19T02:22:01.054Z,986.52
2018-01-19T02:23:10.639Z,986.52
2018-01-19T02:24:20.691Z,986.59
2018-01-19T02:25:30.746Z,986.68
2018-01-19T02:26:40.530Z,986.63
2018-01-19T02:27:50.622Z,986.63
2018-01-19T02:29:00.668Z,986.63
2018-01-19T02:30:10.704Z,986.64
2018-01-19T02:31:20.760Z,986.57
2018-01-19T02:32:30.817Z,986.52
2018-01-19T02:33:40.860Z,986.44
2018-01-19T02:34:50.650Z,986.4
2018-01-19T02:36:00.703Z,986.4
2018-01-19T02:37:10.769Z,986.44
2018-01-19T02:38:20.279Z,986.38
2018-01-19T02:39:29.796Z,986.35
2018-01-19T02:40:39.860Z,986.36
2018-01-19T02:41:49.646Z,986.34
2018-01-19T02:42:59.453Z,986.32
2018-01-19T02:44:09.504Z,986.34
2018-01-19T02:45:19.290Z,986.21
2018-01-19T02:46:29.329Z,986.12
2018-01-19T02:47:39.137Z,986.12
2018-01-19T02:48:48.671Z,986.17
2018-01-19T02:49:58.733Z,986.13
2018-01-19T02:51:08.776Z,986.13
2018-01-19T02:52:18.878Z,986.07
2018-01-19T02:53:28.919Z,985.92
2018-01-19T02:54:38.715Z,985.92
2018-01-19T02:55:48.497Z,986.04
2018-01-19T02:56:58.290Z,986.19
2018-01-19T02:58:08.380Z,986.2
2018-01-19T02:59:18.441Z,986.23
2018-01-19T03:00:27.968Z,986.31
2018-01-19T03:01:37.785Z,986.35
2018-01-19T03:02:47.849Z,986.35
2018-01-19T03:34:09.008Z,986.51
2018-01-19T03:35:19.048Z,986.55
2018-01-19T03:36:28.821Z,986.61
2018-01-19T03:37:38.900Z,986.7
2018-01-19T03:38:48.676Z,986.66
2018-01-19T03:39:58.753Z,986.69
2018-01-19T03:41:08.802Z,986.75
2018-01-19T03:42:18.866Z,986.71
2018-01-19T03:43:28.900Z,986.68
2018-01-19T03:44:38.940Z,986.6
2018-01-19T03:45:49.030Z,986.55
2018-01-19T03:46:59.086Z,986.57
2018-01-19T03:48:09.142Z,986.62
2018-01-19T03:49:19.178Z,986.68
2018-01-19T03:50:29.234Z,986.71
2018-01-19T03:51:39.084Z,986.64
2018-01-19T03:52:49.137Z,986.73
2018-01-19T03:53:59.166Z,986.79
2018-01-19T03:55:09.223Z,986.78
2018-01-19T03:56:19.014Z,986.84
2018-01-19T03:57:29.116Z,986.84
2018-01-19T03:58:39.154Z,986.81
2018-01-19T03:59:49.197Z,986.78
2018-01-19T04:00:58.721Z,986.71
2018-01-19T04:02:08.768Z,986.71
2018-01-19T04:03:18.865Z,986.71
2018-01-19T04:04:28.654Z,986.7
2018-01-19T04:05:38.168Z,986.68
2018-01-19T04:06:48.210Z,986.68
2018-01-19T04:07:57.740Z,986.66
2018-01-19T04:09:07.790Z,986.63
2018-01-19T04:10:17.848Z,986.67
2018-01-19T04:11:28.526Z,986.66
2018-01-19T04:12:38.599Z,986.69
2018-01-19T04:13:48.380Z,986.67
2018-01-19T04:14:58.481Z,986.67
2018-01-19T04:16:08.268Z,986.7
2018-01-19T04:17:18.048Z,986.69
2018-01-19T04:18:28.081Z,986.68
2018-01-19T04:19:38.118Z,986.58
2018-01-19T04:20:48.165Z,986.59
2018-01-19T04:21:58.206Z,986.58
2018-01-19T04:23:08.253Z,986.53
2018-01-19T04:24:18.064Z,986.5
2018-01-19T04:25:27.873Z,986.52
2018-01-19T04:26:37.993Z,986.56
2018-01-19T04:27:48.059Z,986.56
2018-01-19T04:28:58.098Z,986.54
2018-01-19T04:30:08.140Z,986.62
2018-01-19T04:31:17.931Z,986.69
2018-01-19T04:32:28.064Z,986.7
2018-01-19T04:33:37.849Z,986.74
2018-01-19T04:34:47.904Z,986.72
2018-01-19T04:35:57.958Z,986.76
2018-01-19T04:37:07.749Z,986.77
2018-01-19T04:38:17.529Z,986.66
2018-01-19T04:39:27.315Z,986.61
2018-01-19T04:40:37.364Z,986.53
2018-01-19T04:41:47.422Z,986.45
2018-01-19T04:42:57.473Z,986.47
2018-01-19T04:44:07.562Z,986.51
2018-01-19T04:45:17.614Z,986.47
2018-01-19T04:46:27.667Z,986.53
2018-01-19T04:47:37.731Z,986.61
2018-01-19T04:48:47.836Z,986.56
2018-01-19T04:49:57.928Z,986.57
2018-01-19T04:51:07.965Z,986.64
2018-01-19T04:52:17.764Z,986.7
2018-01-19T04:53:28.961Z,986.68
2018-01-19T04:54:39.001Z,986.7
2018-01-19T04:55:49.088Z,986.65
2018-01-19T04:56:59.133Z,986.58
2018-01-19T04:58:09.176Z,986.58
2018-01-19T04:59:18.700Z,986.56
2018-01-19T05:00:28.739Z,986.58
2018-01-19T05:01:38.802Z,986.56
2018-01-19T05:02:48.839Z,986.56
2018-01-19T05:03:58.890Z,986.55
2018-01-19T05:05:08.935Z,986.57
2018-01-19T05:06:18.992Z,986.68
2018-01-19T05:07:29.097Z,986.69
2018-01-19T05:08:39.142Z,986.76
2018-01-19T05:09:48.933Z,986.74
2018-01-19T05:10:58.980Z,986.72
2018-01-19T05:12:08.813Z,986.79
2018-01-19T05:13:18.874Z,986.79
2018-01-19T05:14:28.919Z,986.78
2018-01-19T05:15:38.981Z,986.78
2018-01-19T05:16:49.024Z,986.71
2018-01-19T05:17:58.556Z,986.69
2018-01-19T05:19:08.329Z,986.68
2018-01-19T05:20:18.379Z,986.69
2018-01-19T05:21:28.171Z,986.8
2018-01-19T05:22:37.969Z,986.83
2018-01-19T05:23:48.019Z,986.82
2018-01-19T05:24:58.125Z,986.86
2018-01-19T05:26:08.187Z,986.93
2018-01-19T05:27:18.234Z,986.97
2018-01-19T05:28:28.032Z,986.92
2018-01-19T05:29:38.087Z,986.95
2018-01-19T05:30:48.220Z,986.97
2018-01-19T05:31:58.253Z,986.97
2018-01-19T05:33:08.291Z,986.95
2018-01-19T05:34:18.335Z,986.89
2018-01-19T05:35:28.118Z,986.95
2018-01-19T05:36:37.896Z,986.94
2018-01-19T05:37:47.945Z,986.96
2018-01-19T05:38:57.989Z,987.03
2018-01-19T05:40:08.024Z,987.12
2018-01-19T05:41:18.082Z,987.18
2018-01-19T05:42:28.181Z,987.21
2018-01-19T05:43:38.229Z,987.21
2018-01-19T05:44:48.276Z,987.3
2018-01-19T05:45:58.317Z,987.3
2018-01-19T05:47:08.390Z,987.37
2018-01-19T05:48:18.436Z,987.34
2018-01-19T05:49:28.229Z,987.32
2018-01-19T05:50:38.282Z,987.41
2018-01-19T05:51:48.342Z,987.3
2018-01-19T05:52:58.386Z,987.33
2018-01-19T05:54:08.442Z,987.37
2018-01-19T05:55:18.503Z,987.38
2018-01-19T05:56:28.542Z,987.38
2018-01-19T05:57:38.601Z,987.39
2018-01-19T05:58:48.438Z,987.46
2018-01-19T05:59:58.244Z,987.41
2018-01-19T06:01:08.303Z,987.38
2018-01-19T06:02:18.347Z,987.42
2018-01-19T06:03:28.430Z,987.39
2018-01-19T06:04:38.466Z,987.37
2018-01-19T06:05:48.573Z,987.35
2018-01-19T06:06:58.640Z,987.28
2018-01-19T06:08:08.693Z,987.31
2018-01-19T06:09:18.476Z,987.22
2018-01-19T06:10:28.535Z,987.17
2018-01-19T06:11:38.611Z,987.19
2018-01-19T06:12:48.663Z,987.22
2018-01-19T06:13:58.715Z,987.27
2018-01-19T06:15:08.768Z,987.33
2018-01-19T06:16:18.812Z,987.28
2018-01-19T06:17:29.100Z,987.27
2018-01-19T06:18:39.147Z,987.25
2018-01-19T06:19:49.183Z,987.17
2018-01-19T06:20:59.235Z,987.16
2018-01-19T06:22:09.292Z,987.16
2018-01-19T06:23:19.445Z,987.19
2018-01-19T06:24:28.976Z,987.2
2018-01-19T06:25:39.008Z,987.27
2018-01-19T06:26:48.798Z,987.32
2018-01-19T06:27:58.860Z,987.32
2018-01-19T06:29:08.920Z,987.34
2018-01-19T06:30:18.974Z,987.32
2018-01-19T06:31:29.018Z,987.41
2018-01-19T06:32:39.048Z,987.41
2018-01-19T06:33:49.099Z,987.42
2018-01-19T06:34:59.191Z,987.44
2018-01-19T06:36:09.246Z,987.43
2018-01-19T06:37:19.305Z,987.37
2018-01-19T06:38:29.341Z,987.39
2018-01-19T06:39:39.119Z,987.42
2018-01-19T06:40:48.970Z,987.45
2018-01-19T06:41:59.013Z,987.39
2018-01-19T06:43:09.065Z,987.41
2018-01-19T06:44:18.846Z,987.42
2018-01-19T06:45:28.894Z,987.43
2018-01-19T06:46:38.677Z,987.38
2018-01-19T06:47:48.721Z,987.47
2018-01-19T06:48:58.498Z,987.46
2018-01-19T06:50:08.286Z,987.49
2018-01-19T06:51:18.111Z,987.49
2018-01-19T06:52:27.902Z,987.55
2018-01-19T06:53:37.950Z,987.54
2018-01-19T06:54:47.738Z,987.53
2018-01-19T06:55:57.787Z,987.55
2018-01-19T06:57:07.575Z,987.56
2018-01-19T06:58:17.642Z,987.58
2018-01-19T06:59:27.684Z,987.65
2018-01-19T07:00:37.469Z,987.7
2018-01-19T07:01:47.522Z,987.76
2018-01-19T07:02:57.437Z,987.76
2018-01-19T07:04:07.495Z,987.79
2018-01-19T07:05:17.538Z,987.82
2018-01-19T07:06:27.576Z,987.84
2018-01-19T07:07:37.620Z,987.82
2018-01-19T07:08:47.670Z,987.77
2018-01-19T07:09:57.514Z,987.72
2018-01-19T07:11:07.307Z,987.73
2018-01-19T07:12:17.088Z,987.76
2018-01-19T07:13:27.141Z,987.76
2018-01-19T07:14:37.185Z,987.8
2018-01-19T07:15:47.442Z,987.84
2018-01-19T07:16:57.487Z,987.83
2018-01-19T07:18:07.527Z,987.94
2018-01-19T07:19:17.579Z,987.99
2018-01-19T07:20:27.387Z,988.01
2018-01-19T07:21:37.241Z,988.06
2018-01-19T07:22:47.038Z,988.08
2018-01-19T07:23:57.091Z,988.14
2018-01-19T07:25:07.152Z,988.15
2018-01-19T07:26:17.182Z,988.18
2018-01-19T07:27:26.966Z,988.2
2018-01-19T07:28:36.752Z,988.2
2018-01-19T07:29:46.277Z,988.21
2018-01-19T07:30:56.062Z,988.18
2018-01-19T07:32:06.108Z,988.19
2018-01-19T07:33:16.202Z,988.22
2018-01-19T07:34:26.252Z,988.18
2018-01-19T07:35:36.144Z,988.19
2018-01-19T07:36:46.202Z,988.22
2018-01-19T07:37:56.232Z,988.29
2018-01-19T07:39:06.028Z,988.31
2018-01-19T07:40:15.819Z,988.29
2018-01-19T07:41:25.866Z,988.37
2018-01-19T07:42:35.930Z,988.38
2018-01-19T07:43:45.983Z,988.4
2018-01-19T07:44:56.021Z,988.33
2018-01-19T07:46:06.071Z,988.38
2018-01-19T07:47:15.869Z,988.43
2018-01-19T07:48:25.421Z,988.45
2018-01-19T07:49:35.208Z,988.53
2018-01-19T07:50:45.257Z,988.54
2018-01-19T07:51:55.305Z,988.56
2018-01-19T07:53:05.127Z,988.58
2018-01-19T07:54:14.908Z,988.66
2018-01-19T07:55:24.950Z,988.68
2018-01-19T07:56:34.992Z,988.77
2018-01-19T07:57:45.027Z,988.76
2018-01-19T07:58:55.078Z,988.78
2018-01-19T08:00:04.875Z,988.82
2018-01-19T08:01:14.657Z,988.87
2018-01-19T08:02:24.712Z,988.91
2018-01-19T08:03:34.757Z,988.9
2018-01-19T08:04:44.832Z,988.93
2018-01-19T08:05:54.870Z,988.95
2018-01-19T08:07:04.908Z,989.01
2018-01-19T08:08:14.953Z,989.02
2018-01-19T08:09:25.055Z,988.99
2018-01-19T08:10:34.880Z,989.07
2018-01-19T08:11:44.677Z,989.09
2018-01-19T08:12:54.447Z,989.14
2018-01-19T08:14:04.504Z,989.21
2018-01-19T08:15:14.609Z,989.28
2018-01-19T08:16:24.659Z,989.29
2018-01-19T08:17:34.712Z,989.32
2018-01-19T08:18:44.544Z,989.32
2018-01-19T08:19:54.612Z,989.35
2018-01-19T08:21:04.656Z,989.36
2018-01-19T08:22:14.724Z,989.34
2018-01-19T08:23:24.763Z,989.34
2018-01-19T08:24:34.551Z,989.35
2018-01-19T08:25:44.321Z,989.35
2018-01-19T08:26:54.366Z,989.34
2018-01-19T08:28:04.157Z,989.32
2018-01-19T08:29:14.259Z,989.37
2018-01-19T08:30:24.048Z,989.31
2018-01-19T08:31:34.112Z,989.32
2018-01-19T08:32:44.205Z,989.31
2018-01-19T08:33:53.988Z,989.29
2018-01-19T08:35:04.069Z,989.25
2018-01-19T08:36:14.108Z,989.28
2018-01-19T08:37:24.168Z,989.33
2018-01-19T08:38:34.062Z,989.32
2018-01-19T08:39:44.142Z,989.33
2018-01-19T08:40:54.187Z,989.3
2018-01-19T08:42:04.245Z,989.28
2018-01-19T08:43:14.292Z,989.19
2018-01-19T08:44:24.413Z,989.24
2018-01-19T08:45:34.451Z,989.24
2018-01-19T08:46:44.497Z,989.34
2018-01-19T08:47:54.551Z,989.34
2018-01-19T08:49:04.137Z,989.37
2018-01-19T08:50:14.234Z,989.47
2018-01-19T08:51:24.282Z,989.49
2018-01-19T08:52:34.073Z,989.54
2018-01-19T08:53:43.867Z,989.6
2018-01-19T08:54:53.903Z,989.63
2018-01-19T08:56:03.849Z,989.66
2018-01-19T08:57:13.650Z,989.62
2018-01-19T08:58:23.734Z,989.63
2018-01-19T08:59:33.528Z,989.68
2018-01-19T09:00:43.308Z,989.7
2018-01-19T09:01:53.110Z,989.68
2018-01-19T09:03:03.210Z,989.68
2018-01-19T09:04:13.288Z,989.7
2018-01-19T09:05:23.326Z,989.65
2018-01-19T09:06:33.374Z,989.5
2018-01-19T09:07:43.471Z,989.39
2018-01-19T09:08:53.579Z,989.37
2018-01-19T09:10:03.650Z,989.33
2018-01-19T09:11:13.701Z,989.37
2018-01-19T09:12:24.789Z,989.4
2018-01-19T09:13:34.914Z,989.42
2018-01-19T09:14:44.957Z,989.48
2018-01-19T09:15:55.065Z,989.57
2018-01-19T09:17:05.113Z,989.6
2018-01-19T09:18:15.172Z,989.55
2018-01-19T09:19:25.234Z,989.56
2018-01-19T09:20:35.027Z,989.51
2018-01-19T09:21:45.078Z,989.58
2018-01-19T09:22:56.135Z,989.54
2018-01-19T09:24:06.195Z,989.54
2018-01-19T09:25:15.984Z,989.64
2018-01-19T09:26:26.042Z,989.66
2018-01-19T09:27:36.044Z,989.64
2018-01-19T09:28:45.834Z,989.73
2018-01-19T09:29:55.631Z,989.75
2018-01-19T09:31:05.804Z,989.77
2018-01-19T09:32:15.591Z,989.8
2018-01-19T09:33:25.638Z,989.75
2018-01-19T09:34:35.718Z,989.78
2018-01-19T09:35:45.706Z,989.87
2018-01-19T09:36:55.768Z,989.86
2018-01-19T09:38:05.823Z,989.91
2018-01-19T09:39:15.865Z,989.98
2018-01-19T09:40:25.642Z,990.01
2018-01-19T09:41:35.702Z,990.04
2018-01-19T09:42:45.534Z,990.07
2018-01-19T09:43:55.585Z,990.07
2018-01-19T09:45:05.385Z,990.14
2018-01-19T09:46:15.184Z,990.08
2018-01-19T09:47:25.231Z,990.11
2018-01-19T09:48:35.324Z,990.07
2018-01-19T09:49:45.125Z,990.1
2018-01-19T09:50:55.177Z,990.1
2018-01-19T09:52:04.974Z,990.11
2018-01-19T09:53:14.504Z,990.12
2018-01-19T09:54:24.597Z,990.15
2018-01-19T09:55:34.653Z,990.11
2018-01-19T09:56:44.450Z,990.11
2018-01-19T09:57:54.495Z,990.15
2018-01-19T09:59:04.560Z,990.1
2018-01-19T10:00:14.203Z,990.09
2018-01-19T10:01:23.997Z,990.05
2018-01-19T10:02:33.848Z,990.11
2018-01-19T10:03:43.635Z,990.12
2018-01-19T10:04:53.692Z,990.12
2018-01-19T10:06:03.740Z,990.06
2018-01-19T10:07:13.537Z,990.02
2018-01-19T10:08:23.330Z,990.01
2018-01-19T10:09:33.387Z,990.05
2018-01-19T10:10:43.171Z,989.98
2018-01-19T10:11:53.224Z,990.08
2018-01-19T10:13:03.357Z,989.99
2018-01-19T10:14:13.407Z,989.99
2018-01-19T10:15:23.465Z,989.87
2018-01-19T10:16:33.520Z,989.99
2018-01-19T10:17:43.608Z,989.94
2018-01-19T10:18:53.711Z,989.93
2018-01-19T10:20:03.315Z,989.96
2018-01-19T10:21:13.113Z,990.04
2018-01-19T10:22:22.907Z,989.91
2018-01-19T10:23:32.970Z,989.92
2018-01-19T10:24:42.853Z,989.9
2018-01-19T10:25:52.945Z,989.94
2018-01-19T10:27:02.752Z,990.01
2018-01-19T10:28:12.576Z,990.06
2018-01-19T10:29:22.659Z,989.98
2018-01-19T10:30:32.729Z,990.08
2018-01-19T10:31:42.784Z,990.09
2018-01-19T10:32:52.837Z,990.04
2018-01-19T10:34:02.648Z,990
2018-01-19T10:35:12.730Z,990.01
2018-01-19T10:36:23.384Z,989.99
2018-01-19T10:37:33.446Z,990.23
2018-01-19T10:38:43.559Z,990.07
2018-01-19T10:39:53.364Z,990.25
2018-01-19T10:41:03.422Z,990.11
2018-01-19T10:42:13.481Z,990.1
2018-01-19T10:43:23.541Z,990.24
2018-01-19T10:44:33.332Z,990.17
2018-01-19T10:45:43.419Z,990.23
2018-01-19T10:46:53.221Z,990.2
2018-01-19T10:48:03.274Z,990.09
2018-01-19T10:49:13.330Z,990
2018-01-19T10:50:23.182Z,990.18
2018-01-19T10:51:33.233Z,990.09
2018-01-19T10:52:43.299Z,989.97
2018-01-19T10:53:53.336Z,990.02
2018-01-19T10:55:03.382Z,990.15
2018-01-19T10:56:13.212Z,989.86
2018-01-19T10:57:23.438Z,990.01
2018-01-19T10:58:33.490Z,989.97
2018-01-19T10:59:43.544Z,989.95
2018-01-19T11:00:53.652Z,990.19
2018-01-19T11:02:03.446Z,990.06
2018-01-19T11:03:13.609Z,989.8
2018-01-19T11:04:23.427Z,989.94
2018-01-19T11:05:33.504Z,989.85
2018-01-19T11:06:44.520Z,989.82
2018-01-19T11:07:54.561Z,989.82
2018-01-19T11:09:04.615Z,989.82
2018-01-19T11:10:14.462Z,989.88
2018-01-19T11:11:24.529Z,989.92
2018-01-19T11:12:34.595Z,989.8
2018-01-19T11:13:44.644Z,990
2018-01-19T11:14:54.696Z,989.79
2018-01-19T11:16:04.812Z,989.85
2018-01-19T11:17:14.357Z,989.77
2018-01-19T11:18:24.418Z,989.78
2018-01-19T11:19:34.466Z,989.69
2018-01-19T11:20:44.526Z,989.6
2018-01-19T11:21:54.573Z,989.64
2018-01-19T11:23:04.365Z,989.47
2018-01-19T11:24:14.425Z,989.5
2018-01-19T11:25:24.483Z,989.52
2018-01-19T11:26:34.525Z,989.6
2018-01-19T11:27:44.629Z,989.5
2018-01-19T11:28:54.165Z,989.54
2018-01-19T11:30:04.251Z,989.42
2018-01-19T11:31:14.324Z,989.54
2018-01-19T11:32:24.116Z,989.68
2018-01-19T11:33:34.217Z,989.45
2018-01-19T11:34:44.260Z,989.41
2018-01-19T11:35:54.315Z,989.64
2018-01-19T11:37:04.376Z,989.52
2018-01-19T11:38:14.458Z,989.46
2018-01-19T11:39:24.300Z,989.49
2018-01-19T11:40:34.357Z,989.48
2018-01-19T11:41:44.429Z,989.53
2018-01-19T11:42:54.497Z,989.59
2018-01-19T11:44:04.395Z,989.64
2018-01-19T11:45:14.497Z,989.44
2018-01-19T11:46:24.558Z,989.7
2018-01-19T11:47:35.364Z,989.55
2018-01-19T11:48:49.070Z,989.56
2018-01-19T11:49:59.128Z,989.52
2018-01-19T11:51:09.234Z,989.52
2018-01-19T11:52:19.113Z,989.46
2018-01-19T11:53:29.299Z,989.5
2018-01-19T11:54:39.375Z,989.43
2018-01-19T11:55:49.468Z,989.39
2018-01-19T11:56:59.640Z,989.54
2018-01-19T11:58:09.721Z,989.22
2018-01-19T11:59:19.783Z,989.55
2018-01-19T12:00:29.582Z,989.47
2018-01-19T12:01:39.731Z,989.63
2018-01-19T12:02:49.555Z,989.44
2018-01-19T12:03:59.345Z,989.43
2018-01-19T12:05:09.401Z,989.45
2018-01-19T12:06:19.485Z,989.53
2018-01-19T12:07:29.579Z,989.42
2018-01-19T12:08:38.904Z,989.4
2018-01-19T12:09:48.986Z,989.53
2018-01-19T12:10:59.040Z,989.43
2018-01-19T12:12:09.090Z,989.42
2018-01-19T12:13:18.900Z,989.42
2018-01-19T12:14:29.002Z,989.4
2018-01-19T12:15:39.047Z,989.59
2018-01-19T12:16:49.113Z,989.45
2018-01-19T12:17:59.166Z,989.45
2018-01-19T12:19:08.701Z,989.38
2018-01-19T12:20:18.767Z,989.47
2018-01-19T12:21:28.564Z,989.54
2018-01-19T12:22:38.652Z,989.55
2018-01-19T12:23:48.776Z,989.58
2018-01-19T12:24:58.849Z,989.51
2018-01-19T12:26:08.899Z,989.67
2018-01-19T12:27:18.963Z,989.64
2018-01-19T12:28:28.794Z,989.59
2018-01-19T12:29:38.871Z,989.76
2018-01-19T12:30:48.975Z,989.47
2018-01-19T12:31:59.038Z,989.54
2018-01-19T12:33:08.890Z,989.63
2018-01-19T12:34:19.007Z,989.39
2018-01-19T12:35:29.113Z,989.48
2018-01-19T12:36:39.177Z,989.54
2018-01-19T12:37:49.277Z,989.47
2018-01-19T12:38:59.365Z,989.55
2018-01-19T12:40:09.517Z,989.66
2018-01-19T12:41:19.684Z,989.78
2018-01-19T12:42:29.810Z,989.49
2018-01-19T12:43:39.664Z,989.67
2018-01-19T12:44:50.045Z,989.73
2018-01-19T12:46:00.259Z,989.9
2018-01-19T12:47:10.119Z,989.82
2018-01-19T12:48:20.267Z,989.78
2018-01-19T12:49:30.552Z,989.85
2018-01-19T12:50:40.517Z,989.8
2018-01-19T12:51:50.633Z,989.82
2018-01-19T12:53:00.777Z,989.88
2018-01-19T12:54:11.153Z,989.77
2018-01-19T12:55:21.018Z,989.85
2018-01-19T12:56:31.137Z,989.92
2018-01-19T12:57:41.316Z,990.05
2018-01-19T12:58:50.851Z,990.06
2018-01-19T13:00:00.674Z,989.99
2018-01-19T13:01:11.709Z,990.06
2018-01-19T13:02:21.255Z,989.96
2018-01-19T13:03:30.828Z,989.99
2018-01-19T13:04:40.941Z,989.91
2018-01-19T13:05:51.030Z,989.95
2018-01-19T13:07:01.971Z,990.12
2018-01-19T13:08:12.133Z,990.2
2018-01-19T13:09:22.342Z,990.07
2018-01-19T13:10:32.455Z,990.13
2018-01-19T13:11:42.599Z,990.27
2018-01-19T13:12:52.783Z,990.33
2018-01-19T13:14:02.847Z,990.38
2018-01-19T13:15:12.999Z,990.43
2018-01-19T13:16:22.822Z,990.49
2018-01-19T13:17:32.629Z,990.67
2018-01-19T13:18:42.497Z,990.68
2018-01-19T13:19:52.577Z,990.76
2018-01-19T13:21:02.655Z,990.84
2018-01-19T13:22:12.227Z,990.87
2018-01-19T13:23:22.023Z,990.96
2018-01-19T13:24:32.948Z,991.06
2018-01-19T13:25:42.999Z,991.02
2018-01-19T13:26:53.051Z,990.98
2018-01-19T13:28:03.125Z,991.06
2018-01-19T13:29:12.931Z,991.14
2018-01-19T13:30:24.509Z,991.03
2018-01-19T13:31:34.568Z,990.99
2018-01-19T13:32:44.659Z,990.99
2018-01-19T13:33:54.446Z,990.97
2018-01-19T13:35:04.528Z,990.88
2018-01-19T13:36:14.604Z,990.99
2018-01-19T13:37:24.664Z,991
2018-01-19T13:38:34.196Z,991.07
2018-01-19T13:39:45.227Z,991.12
2018-01-19T13:40:55.317Z,991.15
2018-01-19T13:42:05.439Z,991.23
2018-01-19T13:43:15.510Z,991.25
2018-01-19T13:44:25.596Z,991.25
2018-01-19T13:45:35.681Z,991.24
2018-01-19T13:46:45.757Z,991.31
2018-01-19T13:47:55.904Z,991.32
2018-01-19T13:49:05.717Z,991.19
2018-01-19T13:50:15.793Z,991.19
2018-01-19T13:51:25.868Z,991.24
2018-01-19T13:52:35.992Z,991.15
2018-01-19T13:53:46.099Z,991.13
2018-01-19T13:54:56.195Z,991
2018-01-19T13:56:06.248Z,991.02
2018-01-19T13:57:16.338Z,991.04
2018-01-19T13:58:26.220Z,991.04
2018-01-19T13:59:36.343Z,991.03
2018-01-19T14:00:46.162Z,991.05
2018-01-19T14:01:55.704Z,991.14
2018-01-19T14:03:05.772Z,991.14
2018-01-19T14:04:15.560Z,991.05
2018-01-19T14:05:25.185Z,991.13
2018-01-19T14:06:35.607Z,991.18
2018-01-19T14:07:45.440Z,991.21
2018-01-19T14:08:55.248Z,991.2
2018-01-19T14:10:05.303Z,991.3
2018-01-19T14:11:15.168Z,991.38
2018-01-19T14:12:24.987Z,991.32
2018-01-19T14:13:35.133Z,991.38
2018-01-19T14:14:45.207Z,991.4
2018-01-19T14:15:55.001Z,991.32
2018-01-19T14:17:05.080Z,991.33
2018-01-19T14:18:15.156Z,991.32
2018-01-19T14:19:24.697Z,991.39
2018-01-19T14:20:34.772Z,991.36
2018-01-19T14:21:44.826Z,991.37
2018-01-19T14:22:54.690Z,991.32
2018-01-19T14:24:04.486Z,991.37
2018-01-19T14:25:14.551Z,991.32
2018-01-19T14:26:24.636Z,991.26
2018-01-19T14:27:34.515Z,991.33
2018-01-19T14:28:44.643Z,991.34
2018-01-19T14:29:54.737Z,991.42
2018-01-19T14:31:04.816Z,991.49
2018-01-19T14:32:14.884Z,991.47
2018-01-19T14:33:24.991Z,991.46
2018-01-19T14:34:35.060Z,991.45
2018-01-19T14:35:45.149Z,991.45
2018-01-19T14:36:54.993Z,991.44
2018-01-19T14:38:04.793Z,991.45
2018-01-19T14:39:14.346Z,991.44
2018-01-19T14:40:24.420Z,991.45
2018-01-19T14:41:34.473Z,991.4
2018-01-19T14:42:44.519Z,991.38
2018-01-19T14:43:54.603Z,991.34
2018-01-19T14:45:04.396Z,991.37
2018-01-19T14:46:14.067Z,991.35
2018-01-19T14:47:23.913Z,991.36
2018-01-19T14:48:33.987Z,991.33
2018-01-19T14:49:44.283Z,991.28
2018-01-19T14:50:54.092Z,991.29
2018-01-19T14:52:04.203Z,991.34
2018-01-19T14:53:14.252Z,991.37
2018-01-19T14:54:24.310Z,991.28
2018-01-19T14:55:34.380Z,991.3
2018-01-19T14:56:44.191Z,991.35
2018-01-19T14:57:54.474Z,991.37
2018-01-19T14:59:04.636Z,991.32
2018-01-19T15:00:14.695Z,991.35
2018-01-19T15:01:24.751Z,991.32
2018-01-19T15:02:34.294Z,991.32
2018-01-19T15:03:44.646Z,991.33
2018-01-19T15:04:54.469Z,991.32
2018-01-19T15:06:04.512Z,991.32
2018-01-19T15:07:14.573Z,991.34